createdAt,value
2023-03-10T00:01:29.809Z,2.00
2023-03-10T00:03:59.396Z,2.50
2023-03-10T00:06:29.268Z,2.60
2023-03-10T00:08:59.389Z,2.40
2023-03-10T00:11:27.791Z,2.70
2023-03-10T00:13:57.182Z,2.50
2023-03-10T00:16:29.685Z,2.10
2023-03-10T00:18:59.314Z,2.30
2023-03-10T00:21:30.261Z,2.10
2023-03-10T00:23:59.321Z,2.10
2023-03-10T00:26:29.095Z,1.80
2023-03-10T00:28:57.406Z,2.30
2023-03-10T00:31:28.039Z,1.90
2023-03-10T00:33:56.570Z,2.00
2023-03-10T00:36:28.410Z,2.00
2023-03-10T00:38:57.466Z,2.30
2023-03-10T00:41:27.719Z,1.70
2023-03-10T00:43:55.945Z,2.20
2023-03-10T00:46:25.554Z,1.80
2023-03-10T00:48:53.780Z,1.80
2023-03-10T00:51:22.174Z,1.90
2023-03-10T00:53:50.940Z,2.10
2023-03-10T00:56:24.538Z,2.10
2023-03-10T00:58:56.069Z,2.20
2023-03-10T01:01:39.788Z,1.90
2023-03-10T01:04:14.307Z,1.90
2023-03-10T01:06:44.663Z,2.20
2023-03-10T01:09:14.871Z,2.00
2023-03-10T01:11:43.148Z,2.10
2023-03-10T01:14:13.467Z,2.60
2023-03-10T01:16:41.648Z,2.40
2023-03-10T01:19:09.853Z,2.30
2023-03-10T01:21:38.530Z,2.30
2023-03-10T01:24:07.015Z,2.00
2023-03-10T01:26:35.882Z,1.70
2023-03-10T01:29:05.501Z,2.00
2023-03-10T01:31:33.840Z,1.90
2023-03-10T01:34:03.587Z,2.00
2023-03-10T01:36:31.844Z,2.00
2023-03-10T01:39:00.526Z,2.10
2023-03-10T01:41:29.090Z,2.00
2023-03-10T01:43:57.771Z,2.20
2023-03-10T01:46:38.502Z,2.10
2023-03-10T01:49:19.502Z,1.90
2023-03-10T01:51:54.212Z,1.80
2023-03-10T01:54:26.253Z,2.10
2023-03-10T01:56:54.485Z,2.20
2023-03-10T01:59:22.701Z,2.10
2023-03-10T02:01:51.254Z,1.90
2023-03-10T02:04:27.368Z,2.30
2023-03-10T02:06:55.731Z,2.20
2023-03-10T02:09:25.010Z,2.20
2023-03-10T02:11:53.307Z,2.70
2023-03-10T02:14:24.679Z,2.20
2023-03-10T02:16:53.303Z,2.50
2023-03-10T02:19:45.057Z,2.10
2023-03-10T02:22:15.660Z,2.30
2023-03-10T02:24:54.846Z,2.20
2023-03-10T02:27:24.974Z,2.30
2023-03-10T02:30:02.728Z,2.30
2023-03-10T02:32:36.078Z,2.20
2023-03-10T02:35:04.829Z,2.80
2023-03-10T02:37:34.313Z,2.40
2023-03-10T02:40:05.031Z,2.60
2023-03-10T02:42:35.949Z,3.70
2023-03-10T02:45:05.522Z,5.40
2023-03-10T02:47:34.493Z,5.90
2023-03-10T02:50:05.147Z,6.70
2023-03-10T02:52:47.553Z,5.50
2023-03-10T02:55:17.349Z,3.10
2023-03-10T02:57:45.667Z,2.60
2023-03-10T03:00:14.306Z,2.40
2023-03-10T03:02:44.368Z,2.60
2023-03-10T03:05:13.960Z,2.40
2023-03-10T03:07:42.443Z,2.30
2023-03-10T03:10:12.121Z,3.10
2023-03-10T03:12:40.606Z,2.80
2023-03-10T03:15:13.900Z,2.80
2023-03-10T03:17:43.952Z,3.20
2023-03-10T03:20:15.697Z,3.00
2023-03-10T03:22:47.742Z,3.30
2023-03-10T03:25:18.061Z,3.50
2023-03-10T03:27:47.010Z,3.20
2023-03-10T03:30:17.496Z,3.00
2023-03-10T03:32:45.950Z,2.60
2023-03-10T03:35:17.337Z,2.90
2023-03-10T03:37:46.346Z,2.50
2023-03-10T03:40:15.888Z,2.60
2023-03-10T03:42:48.413Z,2.30
2023-03-10T03:45:20.237Z,3.20
2023-03-10T03:47:49.717Z,2.70
2023-03-10T03:50:19.271Z,2.90
2023-03-10T03:52:47.654Z,2.50
2023-03-10T03:55:17.109Z,1.90
2023-03-10T03:57:47.475Z,2.10
2023-03-10T04:00:18.753Z,2.10
2023-03-10T04:02:47.472Z,1.80
2023-03-10T04:05:19.581Z,2.20
2023-03-10T04:07:50.129Z,2.20
2023-03-10T04:10:20.858Z,2.30
2023-03-10T04:12:57.135Z,2.70
2023-03-10T04:15:25.766Z,2.40
2023-03-10T04:17:57.869Z,2.40
2023-03-10T04:20:26.630Z,2.20
2023-03-10T04:22:55.675Z,2.20
2023-03-10T04:30:55.517Z,2.40
2023-03-10T04:33:28.997Z,2.20
2023-03-10T04:35:57.618Z,2.90
2023-03-10T04:38:28.265Z,2.50
2023-03-10T04:40:56.911Z,2.60
2023-03-10T04:43:27.603Z,3.20
2023-03-10T04:45:56.407Z,2.60
2023-03-10T04:48:24.914Z,2.40
2023-03-10T04:51:01.557Z,2.70
2023-03-10T04:53:32.797Z,2.40
2023-03-10T04:56:03.583Z,2.40
2023-03-10T04:58:32.819Z,2.80
2023-03-10T05:01:03.430Z,2.90
2023-03-10T05:03:37.124Z,2.60
2023-03-10T05:06:15.584Z,2.50
2023-03-10T05:08:46.244Z,2.60
2023-03-10T05:11:14.640Z,2.50
2023-03-10T05:13:43.037Z,2.70
2023-03-10T05:16:16.787Z,3.10
2023-03-10T05:18:47.510Z,4.20
2023-03-10T05:21:16.848Z,3.70
2023-03-10T05:23:46.526Z,3.20
2023-03-10T05:26:15.850Z,3.20
2023-03-10T05:28:47.809Z,2.70
2023-03-10T05:31:26.155Z,2.90
2023-03-10T05:33:58.460Z,2.70
2023-03-10T05:36:26.916Z,2.60
2023-03-10T05:38:55.350Z,2.70
2023-03-10T05:41:23.575Z,2.40
2023-03-10T05:43:54.555Z,2.50
2023-03-10T05:46:24.587Z,2.10
2023-03-10T05:48:56.092Z,2.10
2023-03-10T05:51:25.171Z,2.20
2023-03-10T05:53:53.544Z,2.20
2023-03-10T05:56:26.083Z,2.30
2023-03-10T05:58:57.031Z,2.40
2023-03-10T06:01:29.637Z,2.60
2023-03-10T06:03:58.587Z,2.60
2023-03-10T06:06:26.750Z,2.60
2023-03-10T06:08:56.743Z,2.60
2023-03-10T06:11:26.398Z,2.50
2023-03-10T06:13:55.341Z,2.40
2023-03-10T06:16:23.628Z,2.30
2023-03-10T06:18:56.682Z,2.10
2023-03-10T06:21:25.379Z,2.20
2023-03-10T06:23:53.838Z,2.10
2023-03-10T06:26:22.907Z,2.30
2023-03-10T06:28:51.461Z,2.50
2023-03-10T06:31:22.414Z,2.30
2023-03-10T06:33:51.051Z,2.60
2023-03-10T06:36:20.970Z,2.80
2023-03-10T06:38:49.239Z,2.70
2023-03-10T06:41:17.644Z,2.80
2023-03-10T06:43:45.883Z,3.00
2023-03-10T06:46:16.548Z,3.10
2023-03-10T06:48:46.779Z,2.50
2023-03-10T06:51:17.348Z,2.70
2023-03-10T06:53:46.280Z,3.00
2023-03-10T06:56:19.591Z,3.20
2023-03-10T06:58:49.793Z,3.00
2023-03-10T07:01:29.351Z,2.80
2023-03-10T07:03:58.256Z,3.40
2023-03-10T07:06:32.353Z,3.30
2023-03-10T07:09:21.014Z,3.10
2023-03-10T07:11:49.945Z,2.70
2023-03-10T07:14:18.478Z,3.20
2023-03-10T07:16:46.773Z,2.90
2023-03-10T07:19:15.497Z,3.00
2023-03-10T07:21:44.274Z,2.90
2023-03-10T07:24:14.383Z,3.00
2023-03-10T07:26:42.965Z,4.60
2023-03-10T07:29:12.279Z,3.40
2023-03-10T07:31:41.110Z,2.80
2023-03-10T07:34:10.784Z,2.70
2023-03-10T07:36:39.389Z,2.40
2023-03-10T07:39:07.636Z,2.50
2023-03-10T07:41:36.112Z,2.80
2023-03-10T07:44:04.892Z,2.50
2023-03-10T07:46:34.556Z,2.40
2023-03-10T07:49:06.836Z,2.40
2023-03-10T07:51:35.983Z,2.80
2023-03-10T07:54:04.528Z,2.90
2023-03-10T07:56:33.880Z,2.80
2023-03-10T07:59:02.474Z,2.90
2023-03-10T08:01:36.144Z,3.00
2023-03-10T08:04:05.360Z,2.60
2023-03-10T08:06:35.765Z,3.10
2023-03-10T08:09:04.247Z,2.80
2023-03-10T08:11:32.537Z,3.30
2023-03-10T08:14:02.188Z,3.00
2023-03-10T08:16:31.105Z,3.10
2023-03-10T08:18:59.596Z,3.30
2023-03-10T08:21:28.246Z,3.00
2023-03-10T08:23:57.161Z,3.10
2023-03-10T08:26:25.424Z,2.90
2023-03-10T08:28:53.815Z,3.00
2023-03-10T08:31:22.136Z,3.10
2023-03-10T08:33:54.622Z,3.00
2023-03-10T08:36:24.370Z,3.10
2023-03-10T08:38:54.272Z,3.10
2023-03-10T08:41:24.866Z,3.70
2023-03-10T08:43:57.370Z,3.40
2023-03-10T08:46:28.248Z,3.80
2023-03-10T08:48:56.854Z,4.10
2023-03-10T08:51:26.154Z,4.00
2023-03-10T08:53:54.568Z,4.20
2023-03-10T08:56:23.200Z,4.30
2023-03-10T08:58:54.522Z,4.40
2023-03-10T09:01:23.174Z,4.60
2023-03-10T09:03:51.440Z,4.90
2023-03-10T09:06:19.859Z,4.10
2023-03-10T09:08:50.777Z,3.50
2023-03-10T09:11:25.770Z,3.70
2023-03-10T09:13:54.470Z,3.40
2023-03-10T09:16:24.882Z,3.30
2023-03-10T09:18:53.168Z,3.40
2023-03-10T09:21:21.617Z,3.80
2023-03-10T09:23:50.477Z,3.60
2023-03-10T09:26:19.798Z,4.90
2023-03-10T09:28:51.228Z,4.70
2023-03-10T09:31:23.385Z,4.00
2023-03-10T09:33:53.025Z,3.60
2023-03-10T09:36:25.020Z,3.10
2023-03-10T09:38:54.796Z,3.90
2023-03-10T09:41:34.621Z,4.40
2023-03-10T09:44:23.892Z,4.20
2023-03-10T09:46:52.713Z,3.60
2023-03-10T09:49:57.395Z,3.40
2023-03-10T09:52:30.336Z,3.60
2023-03-10T09:55:07.311Z,3.40
2023-03-10T09:57:35.664Z,3.60
2023-03-10T10:00:11.719Z,3.50
2023-03-10T10:02:43.742Z,3.50
2023-03-10T10:05:27.521Z,4.10
2023-03-10T10:07:58.284Z,4.00
2023-03-10T10:10:28.785Z,3.90
2023-03-10T10:13:12.752Z,4.20
2023-03-10T10:15:47.442Z,3.50
2023-03-10T10:18:25.691Z,3.50
2023-03-10T10:21:02.424Z,3.20
2023-03-10T10:23:50.825Z,3.30
2023-03-10T10:26:26.453Z,3.70
2023-03-10T10:28:59.572Z,3.60
2023-03-10T10:34:00.613Z,4.10
2023-03-10T10:36:48.343Z,4.00
2023-03-10T10:39:37.291Z,4.00
2023-03-10T10:42:28.597Z,4.00
2023-03-10T10:45:04.945Z,4.10
2023-03-10T10:47:36.325Z,3.80
2023-03-10T10:50:18.346Z,4.10
2023-03-10T10:52:50.654Z,3.90
2023-03-10T10:55:30.355Z,3.90
2023-03-10T10:58:01.771Z,3.70
2023-03-10T11:00:32.470Z,3.30
2023-03-10T11:03:19.335Z,3.60
2023-03-10T11:05:48.560Z,3.60
2023-03-10T11:08:27.098Z,3.60
2023-03-10T11:10:59.401Z,5.10
2023-03-10T11:14:00.189Z,3.60
2023-03-10T11:16:47.172Z,3.30
2023-03-10T11:19:28.542Z,3.60
2023-03-10T11:22:03.041Z,3.30
2023-03-10T11:24:46.010Z,3.70
2023-03-10T11:30:02.345Z,3.40
2023-03-10T11:32:41.210Z,3.90
2023-03-10T11:35:24.234Z,4.10
2023-03-10T11:38:10.740Z,3.70
2023-03-10T11:40:49.410Z,3.40
2023-03-10T11:43:26.854Z,3.10
2023-03-10T11:45:55.595Z,3.40
2023-03-10T11:49:12.438Z,3.30
2023-03-10T11:51:48.490Z,3.50
2023-03-10T11:54:35.404Z,3.70
2023-03-10T11:57:09.817Z,3.70
2023-03-10T11:59:43.380Z,3.70
2023-03-10T12:02:27.429Z,3.30
2023-03-10T12:05:13.567Z,3.40
2023-03-10T12:07:45.961Z,3.50
2023-03-10T12:10:22.020Z,3.70
2023-03-10T12:12:51.367Z,3.80
2023-03-10T12:15:37.164Z,3.70
2023-03-10T12:18:08.051Z,3.50
2023-03-10T12:20:36.457Z,3.50
2023-03-10T12:23:10.086Z,4.10
2023-03-10T12:25:39.271Z,3.60
2023-03-10T12:28:16.870Z,3.90
2023-03-10T12:30:47.473Z,4.00
2023-03-10T12:33:39.715Z,3.50
2023-03-10T12:36:32.830Z,3.90
2023-03-10T12:39:26.358Z,3.60
2023-03-10T12:42:35.025Z,3.50
2023-03-10T12:45:29.593Z,4.40
2023-03-10T12:48:02.054Z,4.10
2023-03-10T12:53:11.547Z,3.60
2023-03-10T12:55:43.704Z,3.80
2023-03-10T12:58:23.337Z,3.90
2023-03-10T13:00:58.171Z,5.40
2023-03-10T13:03:35.566Z,5.10
2023-03-10T13:06:04.028Z,5.00
2023-03-10T13:08:50.180Z,4.80
2023-03-10T13:11:18.440Z,3.90
2023-03-10T13:13:53.940Z,3.70
2023-03-10T13:16:22.218Z,3.80
2023-03-10T13:18:54.280Z,3.40
2023-03-10T13:21:29.634Z,2.30
2023-03-10T13:24:04.443Z,3.00
2023-03-10T13:26:34.151Z,3.30
2023-03-10T13:29:04.312Z,3.30
2023-03-10T13:31:33.986Z,2.90
2023-03-10T13:34:21.284Z,3.30
2023-03-10T13:36:49.810Z,3.40
2023-03-10T13:39:27.457Z,3.40
2023-03-10T13:41:58.690Z,3.40
2023-03-10T13:44:34.677Z,3.40
2023-03-10T13:47:04.878Z,3.00
2023-03-10T13:49:35.299Z,3.80
2023-03-10T13:52:06.685Z,3.80
2023-03-10T13:54:41.201Z,4.20
2023-03-10T13:57:31.111Z,4.40
2023-03-10T14:00:00.192Z,4.60
2023-03-10T14:02:48.089Z,4.80
2023-03-10T14:05:39.590Z,4.80
2023-03-10T14:08:28.108Z,4.50
2023-03-10T14:11:22.073Z,3.80
2023-03-10T14:13:50.378Z,4.20
2023-03-10T14:16:18.961Z,4.00
2023-03-10T14:18:51.303Z,4.20
2023-03-10T14:21:25.072Z,3.80
2023-03-10T14:23:53.727Z,4.20
2023-03-10T14:26:23.613Z,4.20
2023-03-10T14:28:51.775Z,4.20
2023-03-10T14:31:22.060Z,4.10
2023-03-10T14:33:51.010Z,4.00
2023-03-10T14:36:19.549Z,4.10
2023-03-10T14:38:49.671Z,4.10
2023-03-10T14:41:19.053Z,4.20
2023-03-10T14:43:47.268Z,4.40
2023-03-10T14:46:15.720Z,4.50
2023-03-10T14:48:46.131Z,4.40
2023-03-10T14:51:28.972Z,5.00
2023-03-10T14:54:01.452Z,5.40
2023-03-10T14:56:33.556Z,5.70
2023-03-10T14:59:02.747Z,5.30
2023-03-10T15:01:32.397Z,6.20
2023-03-10T15:04:00.923Z,7.10
2023-03-10T15:06:29.876Z,7.00
2023-03-10T15:09:05.011Z,6.70
2023-03-10T15:11:37.245Z,10.80
2023-03-10T15:14:17.847Z,13.90
2023-03-10T15:16:49.064Z,17.50
2023-03-10T15:19:21.307Z,11.90
2023-03-10T15:21:49.635Z,10.30
2023-03-10T15:24:18.014Z,13.40
2023-03-10T15:26:49.133Z,10.20
2023-03-10T15:29:23.679Z,10.80
2023-03-10T15:31:52.794Z,9.00
2023-03-10T15:34:22.914Z,10.90
2023-03-10T15:36:51.498Z,10.30
2023-03-10T15:39:31.139Z,11.60
2023-03-10T15:42:00.540Z,11.70
2023-03-10T15:44:29.541Z,11.40
2023-03-10T15:47:00.167Z,11.00
2023-03-10T15:49:30.751Z,10.30
2023-03-10T15:51:59.389Z,9.90
2023-03-10T15:54:27.764Z,9.80
2023-03-10T15:56:56.464Z,10.00
2023-03-10T15:59:28.053Z,9.70
2023-03-10T16:01:57.631Z,11.10
2023-03-10T16:04:26.084Z,9.20
2023-03-10T16:06:55.029Z,12.10
2023-03-10T16:09:23.334Z,20.50
2023-03-10T16:11:52.240Z,20.40
2023-03-10T16:14:26.464Z,23.80
2023-03-10T16:16:55.224Z,15.00
2023-03-10T16:19:23.383Z,9.80
2023-03-10T16:21:52.690Z,9.00
2023-03-10T16:24:21.980Z,7.40
2023-03-10T16:26:50.190Z,7.70
2023-03-10T16:29:19.989Z,7.00
2023-03-10T16:31:48.353Z,7.20
2023-03-10T16:34:18.253Z,7.70
2023-03-10T16:36:49.743Z,7.80
2023-03-10T16:39:18.804Z,7.30
2023-03-10T16:41:49.973Z,7.00
2023-03-10T16:44:22.118Z,7.40
2023-03-10T16:46:50.458Z,8.60
2023-03-10T16:49:18.725Z,9.40
2023-03-10T16:51:47.357Z,9.40
2023-03-10T16:54:20.683Z,11.20
2023-03-10T16:56:50.870Z,12.90
2023-03-10T16:59:21.758Z,7.70
2023-03-10T17:01:50.654Z,7.40
2023-03-10T17:04:19.356Z,10.90
2023-03-10T17:06:48.862Z,8.10
2023-03-10T17:09:17.446Z,6.70
2023-03-10T17:11:55.190Z,6.20
2023-03-10T17:14:24.590Z,6.40
2023-03-10T17:16:54.157Z,9.30
2023-03-10T17:19:28.850Z,9.10
2023-03-10T17:21:57.475Z,7.80
2023-03-10T17:24:27.591Z,7.10
2023-03-10T17:26:57.043Z,6.80
2023-03-10T17:29:25.634Z,7.10
2023-03-10T17:31:56.935Z,7.30
2023-03-10T17:34:27.240Z,6.90
2023-03-10T17:36:56.510Z,6.70
2023-03-10T17:39:27.867Z,7.70
2023-03-10T17:41:56.211Z,7.50
2023-03-10T17:44:27.519Z,8.00
2023-03-10T17:46:58.965Z,6.90
2023-03-10T17:49:27.713Z,7.30
2023-03-10T17:51:55.977Z,9.50
2023-03-10T17:54:26.490Z,7.80
2023-03-10T17:56:55.432Z,8.50
2023-03-10T17:59:23.603Z,9.70
2023-03-10T18:01:53.088Z,9.50
2023-03-10T18:04:21.709Z,10.30
2023-03-10T18:06:55.793Z,11.10
2023-03-10T18:09:43.872Z,12.10
2023-03-10T18:12:13.325Z,11.40
2023-03-10T18:14:44.817Z,10.40
2023-03-10T18:17:13.069Z,10.60
2023-03-10T18:19:52.406Z,9.90
2023-03-10T18:22:22.686Z,15.00
2023-03-10T18:24:51.006Z,26.30
2023-03-10T18:27:19.593Z,31.00
2023-03-10T18:29:47.991Z,34.70
2023-03-10T18:32:19.040Z,37.80
2023-03-10T18:34:49.813Z,32.10
2023-03-10T18:37:26.654Z,23.50
2023-03-10T18:40:06.135Z,18.30
2023-03-10T18:42:41.095Z,14.60
2023-03-10T18:45:10.529Z,12.60
2023-03-10T18:47:39.088Z,14.90
2023-03-10T18:50:25.905Z,14.50
2023-03-10T18:52:59.479Z,14.60
2023-03-10T18:55:27.893Z,12.90
2023-03-10T18:57:56.618Z,11.90
2023-03-10T19:00:25.776Z,11.40
2023-03-10T19:02:54.722Z,11.20
2023-03-10T19:05:23.195Z,12.00
2023-03-10T19:07:51.439Z,10.00
2023-03-10T19:10:19.858Z,11.30
2023-03-10T19:12:50.067Z,11.20
2023-03-10T19:15:18.904Z,12.10
2023-03-10T19:36:04.997Z,12.30
2023-03-10T19:38:46.777Z,11.40
2023-03-10T19:42:18.322Z,11.80
2023-03-10T19:47:26.538Z,10.40
2023-03-10T19:49:58.349Z,11.00
2023-03-10T19:52:26.759Z,11.10
2023-03-10T19:54:55.112Z,10.60
2023-03-10T19:57:23.514Z,10.90
2023-03-10T19:59:52.596Z,11.10
2023-03-10T20:02:20.911Z,11.00
2023-03-10T20:04:50.710Z,11.80
2023-03-10T20:07:18.930Z,11.80
2023-03-10T20:09:49.741Z,11.60
2023-03-10T20:12:18.532Z,10.70
2023-03-10T20:14:47.500Z,10.70
2023-03-10T20:17:17.954Z,11.70
2023-03-10T20:19:47.691Z,11.00
2023-03-10T20:22:19.104Z,11.70
2023-03-10T20:24:47.446Z,11.60
2023-03-10T20:27:15.725Z,11.70
2023-03-10T20:29:48.231Z,12.30
2023-03-10T20:32:16.693Z,12.30
2023-03-10T20:34:45.195Z,11.40
2023-03-10T20:37:13.409Z,10.60
2023-03-10T20:39:49.132Z,11.20
2023-03-10T20:42:17.402Z,11.60
2023-03-10T20:44:45.805Z,11.20
2023-03-10T20:47:15.006Z,11.80
2023-03-10T20:49:43.918Z,10.80
2023-03-10T20:52:12.442Z,10.80
2023-03-10T20:54:41.439Z,11.00
2023-03-10T20:57:09.841Z,11.80
2023-03-10T20:59:40.180Z,11.10
2023-03-10T21:02:39.292Z,11.50
2023-03-10T21:05:07.900Z,12.20
2023-03-10T21:07:36.358Z,12.00
2023-03-10T21:10:06.460Z,12.80
2023-03-10T21:12:35.614Z,13.20
2023-03-10T21:15:04.893Z,12.20
2023-03-10T21:17:34.956Z,13.80
2023-03-10T21:20:11.796Z,12.50
2023-03-10T21:22:40.193Z,13.70
2023-03-10T21:25:15.116Z,13.30
2023-03-10T21:27:47.828Z,13.80
2023-03-10T21:30:18.057Z,14.10
2023-03-10T21:33:02.762Z,13.80
2023-03-10T21:35:34.317Z,13.80
2023-03-10T21:38:04.930Z,12.60
2023-03-10T21:40:33.424Z,13.80
2023-03-10T21:43:04.569Z,14.00
2023-03-10T21:45:37.467Z,15.50
2023-03-10T21:48:06.390Z,15.00
2023-03-10T21:50:34.629Z,16.00
2023-03-10T21:53:03.374Z,16.80
2023-03-10T21:55:32.236Z,14.90
2023-03-10T21:58:00.521Z,16.10
2023-03-10T22:00:30.168Z,15.40
2023-03-10T22:02:58.907Z,15.60
2023-03-10T22:05:27.747Z,15.70
2023-03-10T22:08:01.473Z,15.90
2023-03-10T22:10:31.283Z,15.40
2023-03-10T22:12:59.596Z,17.40
2023-03-10T22:15:29.045Z,17.70
2023-03-10T22:18:00.114Z,18.10
2023-03-10T22:20:28.853Z,16.80
2023-03-10T22:22:57.416Z,16.50
2023-03-10T22:25:25.752Z,16.40
2023-03-10T22:27:55.780Z,17.00
2023-03-10T22:30:25.303Z,16.60
2023-03-10T22:32:54.070Z,15.00
2023-03-10T22:35:22.346Z,15.70
2023-03-10T22:37:51.726Z,15.70
2023-03-10T22:40:22.150Z,15.10
2023-03-10T22:42:55.706Z,15.30
2023-03-10T22:45:31.345Z,15.30
2023-03-10T22:48:02.108Z,15.60
2023-03-10T22:50:50.574Z,15.90
2023-03-10T22:53:19.486Z,14.80
2023-03-10T22:55:49.808Z,14.60
2023-03-10T22:58:22.183Z,15.30
2023-03-10T23:00:51.206Z,16.00
2023-03-10T23:03:20.905Z,15.30
2023-03-10T23:05:49.413Z,16.20
2023-03-10T23:08:18.900Z,15.80
2023-03-10T23:10:47.593Z,15.70
2023-03-10T23:13:17.567Z,14.40
2023-03-10T23:15:46.628Z,14.20
2023-03-10T23:18:15.673Z,15.50
2023-03-10T23:20:47.942Z,14.30
2023-03-10T23:23:16.498Z,13.00
2023-03-10T23:25:47.315Z,13.10
2023-03-10T23:28:19.512Z,13.40
2023-03-10T23:30:48.280Z,13.20
2023-03-10T23:33:19.265Z,13.10
2023-03-10T23:35:50.546Z,12.50
2023-03-10T23:38:19.237Z,12.60
2023-03-10T23:40:47.897Z,11.90
2023-03-10T23:43:16.545Z,13.80
2023-03-10T23:45:53.332Z,13.70
2023-03-10T23:48:24.725Z,12.90
2023-03-10T23:50:53.040Z,13.20
2023-03-10T23:53:22.065Z,12.80
2023-03-10T23:55:50.334Z,13.20
2023-03-10T23:58:19.896Z,13.00
